<?xml version='1.0' encoding='UTF-8'?><gpx version="1.1" creator="JPX - https://github.com/jenetics/jpx" xmlns="http://www.topografix.com/GPX/1/1"><trk><trkseg><trkpt lat="46.5506442" lon="13.4993578"><ele>1451.9999999999998</ele><time>2026-04-25T14:36:04.491Z</time></trkpt><trkpt lat="46.5506116" lon="13.4992738"><ele>1452.0</ele><time>2026-04-25T14:36:16.496Z</time></trkpt><trkpt lat="46.5505533" lon="13.4992196"><ele>1452.0</ele><time>2026-04-25T14:36:24.468Z</time></trkpt><trkpt lat="46.5505394" lon="13.4991185"><ele>1452.0</ele><time>2026-04-25T14:36:36.509Z</time></trkpt><trkpt lat="46.5505234" lon="13.4990282"><ele>1452.0</ele><time>2026-04-25T14:36:44.508Z</time></trkpt><trkpt lat="46.5504964" lon="13.4989385"><ele>1451.9999999999998</ele><time>2026-04-25T14:36:53.413Z</time></trkpt><trkpt lat="46.5504983" lon="13.4988376"><ele>1452.0</ele><time>2026-04-25T14:37:02.508Z</time></trkpt><trkpt lat="46.5504845" lon="13.4987429"><ele>1450.8571428571427</ele><time>2026-04-25T14:37:09.509Z</time></trkpt><trkpt lat="46.5504557" lon="13.4986556"><ele>1449.7142857142858</ele><time>2026-04-25T14:37:16.509Z</time></trkpt><trkpt lat="46.5504966" lon="13.4985706"><ele>1448.5714285714284</ele><time>2026-04-25T14:37:23.473Z</time></trkpt><trkpt lat="46.5505344" lon="13.4984935"><ele>1447.4285714285713</ele><time>2026-04-25T14:37:30.509Z</time></trkpt><trkpt lat="46.5505136" lon="13.4983994"><ele>1446.2857142857142</ele><time>2026-04-25T14:37:37.509Z</time></trkpt><trkpt lat="46.5505186" lon="13.4983031"><ele>1445.142857142857</ele><time>2026-04-25T14:37:57.532Z</time></trkpt><trkpt lat="46.5505463" lon="13.4982182"><ele>1444.0</ele><time>2026-04-25T14:38:08.494Z</time></trkpt><trkpt lat="46.5506062" lon="13.49815"><ele>1444.0</ele><time>2026-04-25T14:39:42.492Z</time></trkpt><trkpt lat="46.5506411" lon="13.4980603"><ele>1444.0</ele><time>2026-04-25T14:39:47.521Z</time></trkpt><trkpt lat="46.5506817" lon="13.4979858"><ele>1444.0</ele><time>2026-04-25T14:39:53.492Z</time></trkpt><trkpt lat="46.5505745" lon="13.4978658"><ele>1444.0</ele><time>2026-04-25T14:40:14.491Z</time></trkpt><trkpt lat="46.5505094" lon="13.497819"><ele>1444.0</ele><time>2026-04-25T14:40:17.573Z</time></trkpt><trkpt lat="46.5504819" lon="13.4977157"><ele>1444.0</ele><time>2026-04-25T14:40:26.494Z</time></trkpt><trkpt lat="46.5505279" lon="13.4976265"><ele>1442.7142857142858</ele><time>2026-04-25T14:40:33.491Z</time></trkpt><trkpt lat="46.5505928" lon="13.4975718"><ele>1441.4285714285713</ele><time>2026-04-25T14:40:37.491Z</time></trkpt><trkpt lat="46.5506301" lon="13.4974931"><ele>1440.142857142857</ele><time>2026-04-25T14:40:43.514Z</time></trkpt><trkpt lat="46.550655" lon="13.4973886"><ele>1438.857142857143</ele><time>2026-04-25T14:40:48.493Z</time></trkpt><trkpt lat="46.5506896" lon="13.497291"><ele>1437.5714285714284</ele><time>2026-04-25T14:40:53.559Z</time></trkpt><trkpt lat="46.5507143" lon="13.4971959"><ele>1436.2857142857142</ele><time>2026-04-25T14:40:59.516Z</time></trkpt><trkpt lat="46.5507165" lon="13.4971044"><ele>1435.0</ele><time>2026-04-25T14:41:04.551Z</time></trkpt><trkpt lat="46.5506643" lon="13.497053"><ele>1432.857142857143</ele><time>2026-04-25T14:41:08.491Z</time></trkpt><trkpt lat="46.5506212" lon="13.4969854"><ele>1430.7142857142858</ele><time>2026-04-25T14:41:16.492Z</time></trkpt><trkpt lat="46.5506358" lon="13.4968962"><ele>1428.5714285714284</ele><time>2026-04-25T14:41:23.517Z</time></trkpt><trkpt lat="46.5506634" lon="13.4968123"><ele>1426.4285714285716</ele><time>2026-04-25T14:41:29.539Z</time></trkpt><trkpt lat="46.5507237" lon="13.4967493"><ele>1424.2857142857142</ele><time>2026-04-25T14:41:35.491Z</time></trkpt><trkpt lat="46.5507623" lon="13.4966769"><ele>1422.142857142857</ele><time>2026-04-25T14:41:40.493Z</time></trkpt><trkpt lat="46.5507578" lon="13.4965741"><ele>1420.0</ele><time>2026-04-25T14:41:46.558Z</time></trkpt><trkpt lat="46.550763" lon="13.4964667"><ele>1420.0</ele><time>2026-04-25T14:41:54.513Z</time></trkpt><trkpt lat="46.5507562" lon="13.4963721"><ele>1420.0</ele><time>2026-04-25T14:42:18.493Z</time></trkpt><trkpt lat="46.5507616" lon="13.4962644"><ele>1420.0</ele><time>2026-04-25T14:42:23.491Z</time></trkpt><trkpt lat="46.5507581" lon="13.4961687"><ele>1420.0</ele><time>2026-04-25T14:42:28.551Z</time></trkpt><trkpt lat="46.5507366" lon="13.496065"><ele>1420.0</ele><time>2026-04-25T14:42:35.572Z</time></trkpt><trkpt lat="46.550677" lon="13.4960035"><ele>1420.0</ele><time>2026-04-25T14:42:41.492Z</time></trkpt><trkpt lat="46.5506511" lon="13.4959193"><ele>1420.0</ele><time>2026-04-25T14:42:46.586Z</time></trkpt><trkpt lat="46.5506794" lon="13.4958244"><ele>1420.5714285714284</ele><time>2026-04-25T14:42:50.492Z</time></trkpt><trkpt lat="46.550699" lon="13.4957321"><ele>1421.142857142857</ele><time>2026-04-25T14:42:55.573Z</time></trkpt><trkpt lat="46.5506878" lon="13.4956358"><ele>1421.7142857142858</ele><time>2026-04-25T14:43:01.554Z</time></trkpt><trkpt lat="46.5506908" lon="13.4955359"><ele>1422.2857142857142</ele><time>2026-04-25T14:43:09.491Z</time></trkpt><trkpt lat="46.5506697" lon="13.4954395"><ele>1422.857142857143</ele><time>2026-04-25T14:43:14.542Z</time></trkpt><trkpt lat="46.5507265" lon="13.4953907"><ele>1423.4285714285713</ele><time>2026-04-25T14:43:21.552Z</time></trkpt><trkpt lat="46.5507331" lon="13.4952955"><ele>1424.0</ele><time>2026-04-25T14:43:27.446Z</time></trkpt><trkpt lat="46.5507338" lon="13.4952005"><ele>1421.8571428571427</ele><time>2026-04-25T14:43:35.491Z</time></trkpt><trkpt lat="46.5507922" lon="13.4951459"><ele>1419.7142857142858</ele><time>2026-04-25T14:43:44.394Z</time></trkpt><trkpt lat="46.5508298" lon="13.4950716"><ele>1417.5714285714284</ele><time>2026-04-25T14:43:50.513Z</time></trkpt><trkpt lat="46.5508723" lon="13.4949963"><ele>1415.4285714285713</ele><time>2026-04-25T14:43:57.538Z</time></trkpt><trkpt lat="46.5508865" lon="13.4948933"><ele>1413.2857142857142</ele><time>2026-04-25T14:44:02.505Z</time></trkpt><trkpt lat="46.5508977" lon="13.4947976"><ele>1411.142857142857</ele><time>2026-04-25T14:44:07.514Z</time></trkpt><trkpt lat="46.5508927" lon="13.4946966"><ele>1409.0</ele><time>2026-04-25T14:44:17.455Z</time></trkpt><trkpt lat="46.5508681" lon="13.4946013"><ele>1406.8333333333335</ele><time>2026-04-25T14:44:23.473Z</time></trkpt><trkpt lat="46.5508237" lon="13.4945066"><ele>1404.6666666666667</ele><time>2026-04-25T14:44:28.51Z</time></trkpt><trkpt lat="46.5507984" lon="13.4943921"><ele>1402.5</ele><time>2026-04-25T14:44:36.511Z</time></trkpt><trkpt lat="46.5507643" lon="13.4943008"><ele>1400.3333333333333</ele><time>2026-04-25T14:44:41.501Z</time></trkpt><trkpt lat="46.5507722" lon="13.4941978"><ele>1398.1666666666665</ele><time>2026-04-25T14:44:48.492Z</time></trkpt><trkpt lat="46.5508096" lon="13.4941053"><ele>1396.0</ele><time>2026-04-25T14:44:55.482Z</time></trkpt><trkpt lat="46.5508707" lon="13.4940331"><ele>1395.9999999999998</ele><time>2026-04-25T14:45:00.474Z</time></trkpt><trkpt lat="46.5509077" lon="13.4939583"><ele>1396.0</ele><time>2026-04-25T14:45:04.561Z</time></trkpt><trkpt lat="46.5509008" lon="13.4938667"><ele>1396.0</ele><time>2026-04-25T14:45:12.515Z</time></trkpt><trkpt lat="46.5508814" lon="13.4937606"><ele>1396.0</ele><time>2026-04-25T14:45:15.514Z</time></trkpt><trkpt lat="46.550887" lon="13.4936673"><ele>1396.0</ele><time>2026-04-25T14:45:22.492Z</time></trkpt><trkpt lat="46.5508401" lon="13.4936048"><ele>1395.9999999999998</ele><time>2026-04-25T14:45:33.492Z</time></trkpt><trkpt lat="46.5508012" lon="13.4935201"><ele>1396.0</ele><time>2026-04-25T14:45:40.498Z</time></trkpt><trkpt lat="46.5508155" lon="13.4934198"><ele>1393.4285714285713</ele><time>2026-04-25T14:45:48.494Z</time></trkpt><trkpt lat="46.5508652" lon="13.4933543"><ele>1390.857142857143</ele><time>2026-04-25T14:46:54.54Z</time></trkpt><trkpt lat="46.5508994" lon="13.4932771"><ele>1388.2857142857142</ele><time>2026-04-25T14:46:58.492Z</time></trkpt><trkpt lat="46.5509168" lon="13.4931749"><ele>1385.7142857142858</ele><time>2026-04-25T14:47:04.503Z</time></trkpt><trkpt lat="46.5508765" lon="13.4930939"><ele>1383.142857142857</ele><time>2026-04-25T14:47:08.494Z</time></trkpt><trkpt lat="46.5508116" lon="13.493087"><ele>1380.5714285714284</ele><time>2026-04-25T14:47:11.555Z</time></trkpt><trkpt lat="46.5507346" lon="13.4930733"><ele>1378.0</ele><time>2026-04-25T14:47:15.492Z</time></trkpt><trkpt lat="46.5506751" lon="13.4930281"><ele>1378.0</ele><time>2026-04-25T14:47:19.53Z</time></trkpt><trkpt lat="46.5506152" lon="13.4929674"><ele>1378.0</ele><time>2026-04-25T14:47:25.492Z</time></trkpt><trkpt lat="46.5506049" lon="13.492866"><ele>1378.0</ele><time>2026-04-25T14:47:31.459Z</time></trkpt><trkpt lat="46.550639" lon="13.4927815"><ele>1378.0</ele><time>2026-04-25T14:47:36.539Z</time></trkpt><trkpt lat="46.5506554" lon="13.4926711"><ele>1378.0</ele><time>2026-04-25T14:47:44.493Z</time></trkpt><trkpt lat="46.5506872" lon="13.4925819"><ele>1378.0</ele><time>2026-04-25T14:47:50.461Z</time></trkpt><trkpt lat="46.5507351" lon="13.4925139"><ele>1378.0</ele><time>2026-04-25T14:48:02.547Z</time></trkpt><trkpt lat="46.5507783" lon="13.492441"><ele>1375.75</ele><time>2026-04-25T14:48:10.494Z</time></trkpt><trkpt lat="46.5508081" lon="13.4925263"><ele>1373.5</ele><time>2026-04-25T14:48:38.551Z</time></trkpt><trkpt lat="46.5507762" lon="13.4921331"><ele>1371.25</ele><time>2026-04-25T14:48:45.494Z</time></trkpt><trkpt lat="46.5507659" lon="13.4920086"><ele>1369.0</ele><time>2026-04-25T14:48:46.545Z</time></trkpt><trkpt lat="46.5507455" lon="13.4919091"><ele>1368.0000000000002</ele><time>2026-04-25T14:48:49.499Z</time></trkpt><trkpt lat="46.5506944" lon="13.4918532"><ele>1367.0</ele><time>2026-04-25T14:48:59.517Z</time></trkpt><trkpt lat="46.5507124" lon="13.4917568"><ele>1366.0</ele><time>2026-04-25T14:49:03.553Z</time></trkpt><trkpt lat="46.5507575" lon="13.4916847"><ele>1365.0</ele><time>2026-04-25T14:49:09.466Z</time></trkpt><trkpt lat="46.5508317" lon="13.4915692"><ele>1364.0</ele><time>2026-04-25T14:49:39.493Z</time></trkpt><trkpt lat="46.5508787" lon="13.4914985"><ele>1363.0000000000002</ele><time>2026-04-25T14:49:44.493Z</time></trkpt><trkpt lat="46.5508469" lon="13.4914123"><ele>1362.0</ele><time>2026-04-25T14:50:30.544Z</time></trkpt><trkpt lat="46.5508565" lon="13.4913196"><ele>1362.0000000000002</ele><time>2026-04-25T14:50:37.493Z</time></trkpt><trkpt lat="46.5509142" lon="13.4912653"><ele>1362.0</ele><time>2026-04-25T14:50:41.436Z</time></trkpt><trkpt lat="46.5509608" lon="13.4911992"><ele>1362.0</ele><time>2026-04-25T14:50:47.547Z</time></trkpt><trkpt lat="46.5509959" lon="13.491103"><ele>1362.0</ele><time>2026-04-25T14:50:56.541Z</time></trkpt><trkpt lat="46.5510202" lon="13.4910004"><ele>1362.0</ele><time>2026-04-25T14:51:03.512Z</time></trkpt><trkpt lat="46.5510506" lon="13.490918"><ele>1362.0000000000002</ele><time>2026-04-25T14:51:08.494Z</time></trkpt><trkpt lat="46.5511" lon="13.4908485"><ele>1362.0</ele><time>2026-04-25T14:51:14.585Z</time></trkpt><trkpt lat="46.5510952" lon="13.4907343"><ele>1362.7142857142858</ele><time>2026-04-25T14:51:34.494Z</time></trkpt><trkpt lat="46.5511262" lon="13.4906365"><ele>1363.4285714285716</ele><time>2026-04-25T14:51:38.456Z</time></trkpt><trkpt lat="46.5511791" lon="13.4905588"><ele>1364.1428571428573</ele><time>2026-04-25T14:51:41.533Z</time></trkpt><trkpt lat="46.5512107" lon="13.4904671"><ele>1364.857142857143</ele><time>2026-04-25T14:51:45.493Z</time></trkpt><trkpt lat="46.5512294" lon="13.4903717"><ele>1365.5714285714284</ele><time>2026-04-25T14:51:51.493Z</time></trkpt><trkpt lat="46.5512166" lon="13.4902808"><ele>1366.2857142857144</ele><time>2026-04-25T14:51:58.548Z</time></trkpt><trkpt lat="46.5512221" lon="13.4901736"><ele>1367.0</ele><time>2026-04-25T14:52:04.492Z</time></trkpt><trkpt lat="46.5512309" lon="13.4900827"><ele>1367.0</ele><time>2026-04-25T14:52:08.533Z</time></trkpt><trkpt lat="46.5512398" lon="13.4899579"><ele>1367.0</ele><time>2026-04-25T14:52:19.547Z</time></trkpt><trkpt lat="46.5512331" lon="13.4898514"><ele>1367.0</ele><time>2026-04-25T14:52:25.362Z</time></trkpt><trkpt lat="46.5512152" lon="13.4897496"><ele>1367.0</ele><time>2026-04-25T14:52:30.497Z</time></trkpt><trkpt lat="46.5512042" lon="13.4896366"><ele>1367.0</ele><time>2026-04-25T14:52:40.477Z</time></trkpt><trkpt lat="46.5511871" lon="13.4895343"><ele>1367.0</ele><time>2026-04-25T14:52:45.494Z</time></trkpt><trkpt lat="46.5511487" lon="13.4894535"><ele>1366.2857142857144</ele><time>2026-04-25T14:52:54.494Z</time></trkpt><trkpt lat="46.5511148" lon="13.4893762"><ele>1365.5714285714284</ele><time>2026-04-25T14:52:59.493Z</time></trkpt><trkpt lat="46.5511005" lon="13.4892787"><ele>1364.857142857143</ele><time>2026-04-25T14:53:06.493Z</time></trkpt><trkpt lat="46.5511044" lon="13.4891853"><ele>1364.1428571428573</ele><time>2026-04-25T14:53:13.492Z</time></trkpt><trkpt lat="46.5511055" lon="13.489091"><ele>1363.4285714285716</ele><time>2026-04-25T14:53:25.412Z</time></trkpt><trkpt lat="46.5511566" lon="13.4890284"><ele>1362.7142857142858</ele><time>2026-04-25T14:53:32.493Z</time></trkpt><trkpt lat="46.5512132" lon="13.488972"><ele>1362.0</ele><time>2026-04-25T14:53:39.494Z</time></trkpt><trkpt lat="46.5512661" lon="13.4889152"><ele>1362.0</ele><time>2026-04-25T14:53:47.42Z</time></trkpt><trkpt lat="46.5512873" lon="13.4888204"><ele>1362.0</ele><time>2026-04-25T14:53:55.495Z</time></trkpt><trkpt lat="46.5513163" lon="13.488721"><ele>1362.0</ele><time>2026-04-25T14:54:09.494Z</time></trkpt><trkpt lat="46.5513701" lon="13.4886502"><ele>1362.0</ele><time>2026-04-25T14:54:15.492Z</time></trkpt><trkpt lat="46.5514162" lon="13.488578"><ele>1362.0</ele><time>2026-04-25T14:54:21.494Z</time></trkpt><trkpt lat="46.5514492" lon="13.488489"><ele>1362.0</ele><time>2026-04-25T14:54:27.494Z</time></trkpt><trkpt lat="46.5515304" lon="13.48837"><ele>1360.1428571428573</ele><time>2026-04-25T14:55:15.493Z</time></trkpt><trkpt lat="46.5515953" lon="13.4883908"><ele>1358.2857142857142</ele><time>2026-04-25T14:55:22.494Z</time></trkpt><trkpt lat="46.5516272" lon="13.4882917"><ele>1356.4285714285716</ele><time>2026-04-25T14:55:37.495Z</time></trkpt><trkpt lat="46.5516772" lon="13.4882293"><ele>1354.5714285714287</ele><time>2026-04-25T14:55:44.492Z</time></trkpt><trkpt lat="46.5517514" lon="13.4881962"><ele>1352.7142857142858</ele><time>2026-04-25T14:55:51.493Z</time></trkpt><trkpt lat="46.5518061" lon="13.4881477"><ele>1350.857142857143</ele><time>2026-04-25T14:55:56.556Z</time></trkpt><trkpt lat="46.5518477" lon="13.4880695"><ele>1349.0</ele><time>2026-04-25T14:56:03.494Z</time></trkpt><trkpt lat="46.5518777" lon="13.4879861"><ele>1350.4285714285713</ele><time>2026-04-25T14:56:10.547Z</time></trkpt><trkpt lat="46.5519005" lon="13.4879006"><ele>1351.857142857143</ele><time>2026-04-25T14:56:16.402Z</time></trkpt><trkpt lat="46.5519683" lon="13.4878605"><ele>1353.2857142857142</ele><time>2026-04-25T14:56:39.494Z</time></trkpt><trkpt lat="46.5520678" lon="13.4878051"><ele>1354.7142857142858</ele><time>2026-04-25T14:56:56.533Z</time></trkpt><trkpt lat="46.5521183" lon="13.4877262"><ele>1356.142857142857</ele><time>2026-04-25T14:57:02.493Z</time></trkpt><trkpt lat="46.5521206" lon="13.4876282"><ele>1357.5714285714287</ele><time>2026-04-25T14:57:08.493Z</time></trkpt><trkpt lat="46.5521696" lon="13.4875699"><ele>1359.0</ele><time>2026-04-25T14:57:17.492Z</time></trkpt><trkpt lat="46.5521451" lon="13.4874837"><ele>1359.0</ele><time>2026-04-25T14:57:27.397Z</time></trkpt><trkpt lat="46.5521672" lon="13.487379"><ele>1359.0</ele><time>2026-04-25T14:57:32.493Z</time></trkpt><trkpt lat="46.5522101" lon="13.4873097"><ele>1359.0</ele><time>2026-04-25T14:57:36.492Z</time></trkpt><trkpt lat="46.5522636" lon="13.4872446"><ele>1359.0</ele><time>2026-04-25T14:57:41.374Z</time></trkpt><trkpt lat="46.5523216" lon="13.4871904"><ele>1359.0</ele><time>2026-04-25T14:57:46.493Z</time></trkpt><trkpt lat="46.5523776" lon="13.4871441"><ele>1359.0</ele><time>2026-04-25T14:57:51.491Z</time></trkpt><trkpt lat="46.5524368" lon="13.4871092"><ele>1359.0</ele><time>2026-04-25T14:57:57.452Z</time></trkpt><trkpt lat="46.5524144" lon="13.4870152"><ele>1359.0</ele><time>2026-04-25T14:58:02.492Z</time></trkpt><trkpt lat="46.5523404" lon="13.4870021"><ele>1359.0</ele><time>2026-04-25T14:58:07.492Z</time></trkpt><trkpt lat="46.5522689" lon="13.4870422"><ele>1359.0</ele><time>2026-04-25T14:58:12.494Z</time></trkpt><trkpt lat="46.5522061" lon="13.4870725"><ele>1359.0</ele><time>2026-04-25T14:58:17.493Z</time></trkpt><trkpt lat="46.5521423" lon="13.4870923"><ele>1359.0</ele><time>2026-04-25T14:58:22.494Z</time></trkpt><trkpt lat="46.5520731" lon="13.4871224"><ele>1359.0</ele><time>2026-04-25T14:58:27.495Z</time></trkpt><trkpt lat="46.5520124" lon="13.4871682"><ele>1359.0</ele><time>2026-04-25T14:58:32.481Z</time></trkpt><trkpt lat="46.5519536" lon="13.4872145"><ele>1355.0</ele><time>2026-04-25T14:58:37.494Z</time></trkpt><trkpt lat="46.5518953" lon="13.4872573"><ele>1351.0</ele><time>2026-04-25T14:58:43.516Z</time></trkpt><trkpt lat="46.5518373" lon="13.4871987"><ele>1347.0</ele><time>2026-04-25T14:58:50.501Z</time></trkpt><trkpt lat="46.5518427" lon="13.4871016"><ele>1343.0</ele><time>2026-04-25T14:58:54.494Z</time></trkpt><trkpt lat="46.5518799" lon="13.4870277"><ele>1339.0</ele><time>2026-04-25T14:58:57.492Z</time></trkpt><trkpt lat="46.5519428" lon="13.487054"><ele>1335.0</ele><time>2026-04-25T14:59:01.497Z</time></trkpt><trkpt lat="46.5520162" lon="13.4870615"><ele>1331.0</ele><time>2026-04-25T14:59:06.493Z</time></trkpt><trkpt lat="46.5520735" lon="13.4870056"><ele>1331.0</ele><time>2026-04-25T14:59:10.453Z</time></trkpt><trkpt lat="46.5520985" lon="13.4869199"><ele>1331.0</ele><time>2026-04-25T14:59:12.495Z</time></trkpt><trkpt lat="46.552134" lon="13.4868419"><ele>1331.0</ele><time>2026-04-25T14:59:16.494Z</time></trkpt><trkpt lat="46.5521854" lon="13.486768"><ele>1331.0</ele><time>2026-04-25T14:59:22.492Z</time></trkpt><trkpt lat="46.5522377" lon="13.4867005"><ele>1331.0</ele><time>2026-04-25T14:59:28.494Z</time></trkpt><trkpt lat="46.5522907" lon="13.4866336"><ele>1331.0</ele><time>2026-04-25T14:59:37.395Z</time></trkpt><trkpt lat="46.5522326" lon="13.4865674"><ele>1331.0</ele><time>2026-04-25T14:59:43.492Z</time></trkpt><trkpt lat="46.5521712" lon="13.4865992"><ele>1331.0</ele><time>2026-04-25T14:59:46.418Z</time></trkpt><trkpt lat="46.5521009" lon="13.486645"><ele>1331.0</ele><time>2026-04-25T14:59:49.494Z</time></trkpt><trkpt lat="46.5520375" lon="13.486654"><ele>1331.0</ele><time>2026-04-25T14:59:52.492Z</time></trkpt><trkpt lat="46.5519694" lon="13.4866646"><ele>1331.0</ele><time>2026-04-25T14:59:56.494Z</time></trkpt><trkpt lat="46.5519047" lon="13.4867068"><ele>1331.0</ele><time>2026-04-25T15:00:00.493Z</time></trkpt><trkpt lat="46.5518413" lon="13.4867214"><ele>1331.0</ele><time>2026-04-25T15:00:04.498Z</time></trkpt><trkpt lat="46.551773" lon="13.4867418"><ele>1331.0</ele><time>2026-04-25T15:00:09.496Z</time></trkpt><trkpt lat="46.5517125" lon="13.4867695"><ele>1327.4285714285716</ele><time>2026-04-25T15:00:14.494Z</time></trkpt><trkpt lat="46.5516544" lon="13.4868138"><ele>1323.857142857143</ele><time>2026-04-25T15:00:19.494Z</time></trkpt><trkpt lat="46.5516111" lon="13.4868817"><ele>1320.2857142857142</ele><time>2026-04-25T15:00:24.494Z</time></trkpt><trkpt lat="46.5515688" lon="13.4869755"><ele>1316.7142857142858</ele><time>2026-04-25T15:00:30.535Z</time></trkpt><trkpt lat="46.5514948" lon="13.4869768"><ele>1313.142857142857</ele><time>2026-04-25T15:00:41.493Z</time></trkpt><trkpt lat="46.5514786" lon="13.4868859"><ele>1309.5714285714287</ele><time>2026-04-25T15:00:46.455Z</time></trkpt><trkpt lat="46.5515163" lon="13.4868048"><ele>1306.0</ele><time>2026-04-25T15:00:51.564Z</time></trkpt><trkpt lat="46.5515654" lon="13.4867345"><ele>1306.0000000000002</ele><time>2026-04-25T15:01:16.494Z</time></trkpt><trkpt lat="46.5516061" lon="13.4866349"><ele>1306.0</ele><time>2026-04-25T15:01:20.495Z</time></trkpt><trkpt lat="46.5516407" lon="13.4865408"><ele>1306.0</ele><time>2026-04-25T15:01:25.42Z</time></trkpt><trkpt lat="46.5516636" lon="13.4864444"><ele>1306.0</ele><time>2026-04-25T15:01:31.492Z</time></trkpt><trkpt lat="46.5516901" lon="13.4863459"><ele>1306.0</ele><time>2026-04-25T15:01:39.417Z</time></trkpt><trkpt lat="46.5517253" lon="13.486248"><ele>1306.0000000000002</ele><time>2026-04-25T15:01:43.492Z</time></trkpt><trkpt lat="46.5517744" lon="13.4861845"><ele>1306.0</ele><time>2026-04-25T15:01:48.511Z</time></trkpt><trkpt lat="46.5518199" lon="13.4861053"><ele>1302.5</ele><time>2026-04-25T15:01:54.544Z</time></trkpt><trkpt lat="46.5518554" lon="13.4860171"><ele>1299.0</ele><time>2026-04-25T15:02:01.554Z</time></trkpt><trkpt lat="46.5518052" lon="13.4859557"><ele>1295.5</ele><time>2026-04-25T15:02:07.493Z</time></trkpt><trkpt lat="46.5518649" lon="13.4859956"><ele>1292.0</ele><time>2026-04-25T15:02:27.533Z</time></trkpt><trkpt lat="46.551811" lon="13.4859482"><ele>1288.5</ele><time>2026-04-25T15:02:36.528Z</time></trkpt><trkpt lat="46.5516791" lon="13.4858567"><ele>1285.0</ele><time>2026-04-25T15:03:03.565Z</time></trkpt><trkpt lat="46.5516166" lon="13.4858183"><ele>1285.0</ele><time>2026-04-25T15:03:13.494Z</time></trkpt><trkpt lat="46.5516971" lon="13.4858468"><ele>1285.0</ele><time>2026-04-25T15:03:35.553Z</time></trkpt><trkpt lat="46.5516309" lon="13.4856473"><ele>1285.0</ele><time>2026-04-25T15:03:40.492Z</time></trkpt><trkpt lat="46.5515304" lon="13.4854552"><ele>1285.0</ele><time>2026-04-25T15:03:41.493Z</time></trkpt><trkpt lat="46.5514649" lon="13.4853402"><ele>1282.7142857142858</ele><time>2026-04-25T15:03:42.494Z</time></trkpt><trkpt lat="46.5514221" lon="13.4852553"><ele>1280.4285714285716</ele><time>2026-04-25T15:03:46.494Z</time></trkpt><trkpt lat="46.5513656" lon="13.4852041"><ele>1278.1428571428573</ele><time>2026-04-25T15:03:51.551Z</time></trkpt><trkpt lat="46.551313" lon="13.4851426"><ele>1275.857142857143</ele><time>2026-04-25T15:03:59.536Z</time></trkpt><trkpt lat="46.5512654" lon="13.4850793"><ele>1273.5714285714284</ele><time>2026-04-25T15:04:03.492Z</time></trkpt><trkpt lat="46.5512218" lon="13.48501"><ele>1271.2857142857144</ele><time>2026-04-25T15:04:11.515Z</time></trkpt><trkpt lat="46.5512171" lon="13.4849105"><ele>1269.0</ele><time>2026-04-25T15:04:18.559Z</time></trkpt><trkpt lat="46.5512884" lon="13.4848928"><ele>1269.0</ele><time>2026-04-25T15:04:23.461Z</time></trkpt><trkpt lat="46.5513532" lon="13.484895"><ele>1269.0</ele><time>2026-04-25T15:04:27.498Z</time></trkpt><trkpt lat="46.5514263" lon="13.4849238"><ele>1269.0</ele><time>2026-04-25T15:04:32.551Z</time></trkpt><trkpt lat="46.5514887" lon="13.4849928"><ele>1269.0</ele><time>2026-04-25T15:04:38.636Z</time></trkpt><trkpt lat="46.5515433" lon="13.4850578"><ele>1269.0</ele><time>2026-04-25T15:04:43.492Z</time></trkpt><trkpt lat="46.5516002" lon="13.4851099"><ele>1269.0</ele><time>2026-04-25T15:04:49.5Z</time></trkpt><trkpt lat="46.5516648" lon="13.4851342"><ele>1269.0</ele><time>2026-04-25T15:04:53.534Z</time></trkpt><trkpt lat="46.5516891" lon="13.4850281"><ele>1269.0</ele><time>2026-04-25T15:05:02.534Z</time></trkpt><trkpt lat="46.5516487" lon="13.4849538"><ele>1269.0</ele><time>2026-04-25T15:05:07.396Z</time></trkpt><trkpt lat="46.5515877" lon="13.4849283"><ele>1269.0</ele><time>2026-04-25T15:05:12.492Z</time></trkpt><trkpt lat="46.5515449" lon="13.4848531"><ele>1269.0</ele><time>2026-04-25T15:05:20.415Z</time></trkpt><trkpt lat="46.5514988" lon="13.4847818"><ele>1269.0</ele><time>2026-04-25T15:05:24.544Z</time></trkpt><trkpt lat="46.55146" lon="13.4847056"><ele>1269.0</ele><time>2026-04-25T15:05:29.456Z</time></trkpt><trkpt lat="46.551438" lon="13.4845978"><ele>1269.0</ele><time>2026-04-25T15:05:34.492Z</time></trkpt><trkpt lat="46.551401" lon="13.4845008"><ele>1266.142857142857</ele><time>2026-04-25T15:05:42.493Z</time></trkpt><trkpt lat="46.5513504" lon="13.48442"><ele>1263.2857142857142</ele><time>2026-04-25T15:05:46.55Z</time></trkpt><trkpt lat="46.5513194" lon="13.4843313"><ele>1260.4285714285713</ele><time>2026-04-25T15:05:52.527Z</time></trkpt><trkpt lat="46.5512501" lon="13.4843237"><ele>1257.5714285714284</ele><time>2026-04-25T15:06:05.491Z</time></trkpt><trkpt lat="46.5512176" lon="13.4842396"><ele>1254.7142857142858</ele><time>2026-04-25T15:06:23.494Z</time></trkpt><trkpt lat="46.5512129" lon="13.4841348"><ele>1251.8571428571427</ele><time>2026-04-25T15:06:27.494Z</time></trkpt><trkpt lat="46.5512234" lon="13.484041"><ele>1249.0</ele><time>2026-04-25T15:06:31.48Z</time></trkpt><trkpt lat="46.5512303" lon="13.4839424"><ele>1248.9999999999998</ele><time>2026-04-25T15:06:37.499Z</time></trkpt><trkpt lat="46.5512312" lon="13.4838197"><ele>1249.0</ele><time>2026-04-25T15:06:51.494Z</time></trkpt><trkpt lat="46.5511962" lon="13.4837385"><ele>1249.0</ele><time>2026-04-25T15:07:00.4Z</time></trkpt><trkpt lat="46.5511811" lon="13.4836487"><ele>1249.0</ele><time>2026-04-25T15:07:05.566Z</time></trkpt><trkpt lat="46.5511644" lon="13.4835567"><ele>1249.0</ele><time>2026-04-25T15:07:13.494Z</time></trkpt><trkpt lat="46.5511122" lon="13.4834869"><ele>1248.9999999999998</ele><time>2026-04-25T15:07:18.493Z</time></trkpt><trkpt lat="46.5510637" lon="13.4834015"><ele>1249.0</ele><time>2026-04-25T15:07:23.492Z</time></trkpt><trkpt lat="46.5510273" lon="13.483308"><ele>1245.142857142857</ele><time>2026-04-25T15:07:28.462Z</time></trkpt><trkpt lat="46.551006" lon="13.483209"><ele>1241.2857142857142</ele><time>2026-04-25T15:07:33.535Z</time></trkpt><trkpt lat="46.5509922" lon="13.4831175"><ele>1237.4285714285716</ele><time>2026-04-25T15:07:42.514Z</time></trkpt><trkpt lat="46.5509511" lon="13.4830462"><ele>1233.5714285714284</ele><time>2026-04-25T15:07:46.492Z</time></trkpt><trkpt lat="46.5508888" lon="13.4830313"><ele>1229.7142857142858</ele><time>2026-04-25T15:07:50.493Z</time></trkpt><trkpt lat="46.5508162" lon="13.4830477"><ele>1225.857142857143</ele><time>2026-04-25T15:07:55.514Z</time></trkpt><trkpt lat="46.5507453" lon="13.4830564"><ele>1222.0</ele><time>2026-04-25T15:08:01.398Z</time></trkpt><trkpt lat="46.5506818" lon="13.4830515"><ele>1222.0</ele><time>2026-04-25T15:08:07.495Z</time></trkpt><trkpt lat="46.5506146" lon="13.483009"><ele>1222.0</ele><time>2026-04-25T15:08:12.493Z</time></trkpt><trkpt lat="46.5505592" lon="13.4829555"><ele>1222.0</ele><time>2026-04-25T15:08:23.456Z</time></trkpt><trkpt lat="46.5504969" lon="13.483015"><ele>1222.0</ele><time>2026-04-25T15:08:29.495Z</time></trkpt><trkpt lat="46.5504511" lon="13.4830783"><ele>1222.0</ele><time>2026-04-25T15:08:34.553Z</time></trkpt><trkpt lat="46.5503829" lon="13.4829411"><ele>1222.0</ele><time>2026-04-25T15:08:41.494Z</time></trkpt><trkpt lat="46.550323" lon="13.4829084"><ele>1219.857142857143</ele><time>2026-04-25T15:08:46.517Z</time></trkpt><trkpt lat="46.5502447" lon="13.4828829"><ele>1217.7142857142858</ele><time>2026-04-25T15:08:51.556Z</time></trkpt><trkpt lat="46.5501959" lon="13.4828169"><ele>1215.5714285714284</ele><time>2026-04-25T15:08:55.478Z</time></trkpt><trkpt lat="46.5501363" lon="13.4827816"><ele>1213.4285714285716</ele><time>2026-04-25T15:08:59.495Z</time></trkpt><trkpt lat="46.5500781" lon="13.4827163"><ele>1211.2857142857142</ele><time>2026-04-25T15:09:04.493Z</time></trkpt><trkpt lat="46.5500393" lon="13.4826438"><ele>1209.142857142857</ele><time>2026-04-25T15:09:09.453Z</time></trkpt><trkpt lat="46.5500013" lon="13.4825624"><ele>1207.0</ele><time>2026-04-25T15:09:15.493Z</time></trkpt><trkpt lat="46.5499543" lon="13.4824797"><ele>1206.9999999999998</ele><time>2026-04-25T15:09:26.492Z</time></trkpt><trkpt lat="46.5499173" lon="13.4823988"><ele>1207.0</ele><time>2026-04-25T15:09:30.492Z</time></trkpt><trkpt lat="46.5498938" lon="13.4823095"><ele>1207.0</ele><time>2026-04-25T15:09:35.512Z</time></trkpt><trkpt lat="46.5498583" lon="13.4822257"><ele>1207.0</ele><time>2026-04-25T15:09:42.563Z</time></trkpt><trkpt lat="46.5498076" lon="13.4821403"><ele>1207.0</ele><time>2026-04-25T15:09:49.494Z</time></trkpt><trkpt lat="46.5497712" lon="13.4820523"><ele>1206.9999999999998</ele><time>2026-04-25T15:09:56.416Z</time></trkpt><trkpt lat="46.5497722" lon="13.4819583"><ele>1207.0</ele><time>2026-04-25T15:10:01.492Z</time></trkpt><trkpt lat="46.5497734" lon="13.4818566"><ele>1210.0</ele><time>2026-04-25T15:10:06.567Z</time></trkpt><trkpt lat="46.5497792" lon="13.4817598"><ele>1210.0</ele><time>2026-04-25T15:10:11.541Z</time></trkpt><trkpt lat="46.5497687" lon="13.4816685"><ele>1210.0</ele><time>2026-04-25T15:10:17.492Z</time></trkpt></trkseg></trk></gpx>